KLWT

Lewistown Municipal Airport

Lewistown, Montana, USA
METAR KLWT 210354Z AUTO 00000KT 10SM CLR M03/M09 A2993 RMK AO2 SLP176 T10331089
Observed Flight Rules
Jan-21 @ 03:54 UTC (53 minutes ago) Visual Flight Rules
Wind Visibility Clouds
Calm 10 miles
  • Clear skies
Temperatures Readings
Current -3°C / 27°F
Dewpoint -9°C / 16°F
Humidity 64%
Altimeter 29.93" Hg
Pressure 1017.6 hPa
Elevation 1270
METAR KLWT 210354Z AUTO 00000KT 10SM CLR M03/M09 A2993 RMK AO2 SLP176 T10331089
Observed Flight Rules
Jan-21 @ 03:54 UTC
(53 minutes ago)
VFR
Wind Visibility
Calm 10 miles
Clouds
  • Clear skies
Temperature Dewpoint
-3°C / 27°F -9°C / 16°F
Humidity Altimeter Pressure
64% 29.93" Hg 1017.6 hPa